createdAt,value
2023-01-22T00:00:25.036Z,87.81
2023-01-22T00:02:52.778Z,87.58
2023-01-22T00:05:20.609Z,88.20
2023-01-22T00:07:49.633Z,88.60
2023-01-22T00:10:17.872Z,87.93
2023-01-22T00:12:45.635Z,88.05
2023-01-22T00:15:13.316Z,88.72
2023-01-22T00:17:41.028Z,88.33
2023-01-22T00:20:10.774Z,88.58
2023-01-22T00:22:38.464Z,88.91
2023-01-22T00:25:11.354Z,88.74
2023-01-22T00:27:39.192Z,88.82
2023-01-22T00:30:08.553Z,88.67
2023-01-22T00:32:36.454Z,88.21
2023-01-22T00:35:04.601Z,88.43
2023-01-22T00:37:32.345Z,88.13
2023-01-22T00:40:00.122Z,88.68
2023-01-22T00:42:29.227Z,89.07
2023-01-22T00:44:56.907Z,88.93
2023-01-22T00:47:24.547Z,89.07
2023-01-22T00:49:52.466Z,89.02
2023-01-22T00:52:20.090Z,88.55
2023-01-22T00:54:47.828Z,88.66
2023-01-22T00:57:15.501Z,89.09
2023-01-22T00:59:45.617Z,88.71
2023-01-22T01:02:13.452Z,88.57
2023-01-22T01:04:41.223Z,88.95
2023-01-22T01:07:09.186Z,89.10
2023-01-22T01:09:37.526Z,88.88
2023-01-22T01:12:05.704Z,88.54
2023-01-22T01:14:33.621Z,88.83
2023-01-22T01:17:02.753Z,89.23
2023-01-22T01:19:30.420Z,88.77
2023-01-22T01:21:58.098Z,88.82
2023-01-22T01:24:25.753Z,88.63
2023-01-22T01:26:53.478Z,88.63
2023-01-22T01:29:21.143Z,88.36
2023-01-22T01:31:53.112Z,88.25
2023-01-22T01:34:22.386Z,88.10
2023-01-22T01:36:50.219Z,88.06
2023-01-22T01:39:19.494Z,87.74
2023-01-22T01:41:47.893Z,87.25
2023-01-22T01:44:17.713Z,86.99
2023-01-22T01:46:49.355Z,86.68
2023-01-22T01:49:22.829Z,86.56
2023-01-22T01:51:53.791Z,85.96
2023-01-22T01:54:21.590Z,86.99
2023-01-22T01:56:52.452Z,86.78
2023-01-22T01:59:22.706Z,86.73
2023-01-22T02:01:54.781Z,86.40
2023-01-22T02:04:23.744Z,86.82
2023-01-22T02:06:52.794Z,87.36
2023-01-22T02:09:21.043Z,87.20
2023-01-22T02:11:52.068Z,87.83
2023-01-22T02:14:23.396Z,87.14
2023-01-22T02:17:00.898Z,86.99
2023-01-22T02:19:28.651Z,87.04
2023-01-22T02:21:57.746Z,87.98
2023-01-22T02:24:31.281Z,87.36
2023-01-22T02:26:59.059Z,87.95
2023-01-22T02:29:29.017Z,87.99
2023-01-22T02:31:56.768Z,87.32
2023-01-22T02:34:24.941Z,87.52
2023-01-22T02:36:53.371Z,87.17
2023-01-22T02:39:22.746Z,87.20
2023-01-22T02:41:52.139Z,87.32
2023-01-22T02:44:20.093Z,87.11
2023-01-22T02:46:47.812Z,87.14
2023-01-22T02:49:15.717Z,86.84
2023-01-22T02:51:43.345Z,86.97
2023-01-22T02:54:11.895Z,86.91
2023-01-22T02:56:40.991Z,86.70
2023-01-22T02:59:09.817Z,86.78
2023-01-22T03:01:37.851Z,86.36
2023-01-22T03:04:10.739Z,86.71
2023-01-22T03:06:40.638Z,86.94
2023-01-22T03:09:10.227Z,87.09
2023-01-22T03:11:42.059Z,87.86
2023-01-22T03:14:35.057Z,87.40
2023-01-22T03:17:21.280Z,87.31
2023-01-22T03:20:06.517Z,87.56
2023-01-22T03:22:34.231Z,87.39
2023-01-22T03:25:02.574Z,87.72
2023-01-22T03:27:32.689Z,88.03
2023-01-22T03:30:00.544Z,87.87
2023-01-22T03:32:32.474Z,87.64
2023-01-22T03:35:01.689Z,88.25
2023-01-22T03:37:39.276Z,88.20
2023-01-22T03:40:10.159Z,88.29
2023-01-22T03:42:41.247Z,88.39
2023-01-22T03:45:09.963Z,88.56
2023-01-22T03:47:38.828Z,89.13
2023-01-22T03:50:20.325Z,88.42
2023-01-22T03:52:48.080Z,88.34
2023-01-22T03:55:16.894Z,88.67
2023-01-22T03:57:46.195Z,88.20
2023-01-22T04:00:15.869Z,88.35
2023-01-22T04:02:44.205Z,88.28
2023-01-22T04:05:21.061Z,88.42
2023-01-22T04:07:50.472Z,88.46
2023-01-22T04:10:20.679Z,87.96
2023-01-22T04:12:50.417Z,88.28
2023-01-22T04:15:21.414Z,87.91
2023-01-22T04:17:50.666Z,88.19
2023-01-22T04:20:51.142Z,87.77
2023-01-22T04:23:31.236Z,87.82
2023-01-22T04:25:59.267Z,87.68
2023-01-22T04:28:28.324Z,89.38
2023-01-22T04:30:57.131Z,87.91
2023-01-22T04:34:03.100Z,88.20
2023-01-22T04:36:33.446Z,88.48
2023-01-22T04:39:01.216Z,88.51
2023-01-22T04:41:29.083Z,88.28
2023-01-22T04:43:59.139Z,87.80
2023-01-22T04:46:27.847Z,88.00
2023-01-22T04:48:55.673Z,88.73
2023-01-22T04:51:23.372Z,88.36
2023-01-22T04:53:51.097Z,88.39
2023-01-22T04:56:19.230Z,89.34
2023-01-22T04:58:47.400Z,89.00
2023-01-22T05:01:17.416Z,89.11
2023-01-22T05:03:45.961Z,88.59
2023-01-22T05:06:13.649Z,89.14
2023-01-22T05:08:41.633Z,88.38
2023-01-22T05:11:10.907Z,88.56
2023-01-22T05:13:45.414Z,88.95
2023-01-22T05:16:13.811Z,88.41
2023-01-22T05:18:42.845Z,89.15
2023-01-22T05:21:10.586Z,89.38
2023-01-22T05:23:38.708Z,89.71
2023-01-22T05:26:07.675Z,89.27
2023-01-22T05:28:42.846Z,89.64
2023-01-22T05:31:28.053Z,89.08
2023-01-22T05:34:05.014Z,88.50
2023-01-22T05:36:33.428Z,88.53
2023-01-22T05:39:06.976Z,89.27
2023-01-22T05:41:36.041Z,88.92
2023-01-22T05:44:03.812Z,88.90
2023-01-22T05:46:32.218Z,88.94
2023-01-22T05:49:12.101Z,89.21
2023-01-22T05:51:40.070Z,88.79
2023-01-22T05:54:07.969Z,89.03
2023-01-22T05:56:38.851Z,88.57
2023-01-22T05:59:06.577Z,89.39
2023-01-22T06:01:35.104Z,88.88
2023-01-22T06:04:03.535Z,89.01
2023-01-22T06:06:32.589Z,88.84
2023-01-22T06:09:00.310Z,88.97
2023-01-22T06:11:33.179Z,88.42
2023-01-22T06:14:00.876Z,88.07
2023-01-22T06:16:29.128Z,88.22
2023-01-22T06:19:02.784Z,88.61
2023-01-22T06:21:38.108Z,88.64
2023-01-22T06:24:06.353Z,88.52
2023-01-22T06:26:34.110Z,88.40
2023-01-22T06:29:02.334Z,88.47
2023-01-22T06:31:31.462Z,88.55
2023-01-22T06:33:59.555Z,88.23
2023-01-22T06:36:27.636Z,88.87
2023-01-22T06:38:57.331Z,89.53
2023-01-22T06:41:37.124Z,89.24
2023-01-22T06:44:07.225Z,89.96
2023-01-22T06:46:34.991Z,90.05
2023-01-22T06:49:10.542Z,89.79
2023-01-22T06:51:40.030Z,89.65
2023-01-22T06:54:12.509Z,89.48
2023-01-22T06:56:40.472Z,90.26
2023-01-22T06:59:08.504Z,89.98
2023-01-22T07:01:36.319Z,89.58
2023-01-22T07:04:04.033Z,90.21
2023-01-22T07:06:31.716Z,90.31
2023-01-22T07:08:59.407Z,90.08
2023-01-22T07:11:28.490Z,89.86
2023-01-22T07:13:56.168Z,89.90
2023-01-22T07:16:23.829Z,89.95
2023-01-22T07:18:51.648Z,90.31
2023-01-22T07:21:19.290Z,89.95
2023-01-22T07:23:46.929Z,90.23
2023-01-22T07:26:15.136Z,90.46
2023-01-22T07:28:44.832Z,90.49
2023-01-22T07:31:13.227Z,90.24
2023-01-22T07:33:41.078Z,90.61
2023-01-22T07:36:09.020Z,90.37
2023-01-22T07:38:36.674Z,91.42
2023-01-22T07:41:13.922Z,90.91
2023-01-22T07:43:50.139Z,91.01
2023-01-22T07:46:18.125Z,91.01
2023-01-22T07:48:46.942Z,90.42
2023-01-22T07:51:14.999Z,90.64
2023-01-22T07:53:42.793Z,90.66
2023-01-22T07:56:10.559Z,90.23
2023-01-22T07:58:39.207Z,90.59
2023-01-22T08:01:08.799Z,90.36
2023-01-22T08:03:37.819Z,90.07
2023-01-22T08:06:10.230Z,90.21
2023-01-22T08:08:38.619Z,90.20
2023-01-22T08:11:06.300Z,90.28
2023-01-22T08:13:33.959Z,90.43
2023-01-22T08:16:01.654Z,89.91
2023-01-22T08:18:30.736Z,90.75
2023-01-22T08:21:01.076Z,90.82
2023-01-22T08:23:29.232Z,90.55
2023-01-22T08:26:00.046Z,90.94
2023-01-22T08:28:27.871Z,91.56
2023-01-22T08:30:58.558Z,91.17
2023-01-22T08:33:26.721Z,90.53
2023-01-22T08:35:55.826Z,91.05
2023-01-22T08:38:23.537Z,91.48
2023-01-22T08:40:51.729Z,91.56
2023-01-22T08:43:19.557Z,92.05
2023-01-22T08:45:49.847Z,91.73
2023-01-22T08:48:17.669Z,92.18
2023-01-22T08:50:45.345Z,91.63
2023-01-22T08:53:14.476Z,91.27
2023-01-22T08:55:42.130Z,91.51
2023-01-22T08:58:10.500Z,91.07
2023-01-22T09:00:38.299Z,91.38
2023-01-22T09:03:05.938Z,90.94
2023-01-22T09:05:33.673Z,91.07
2023-01-22T09:08:01.313Z,90.28
2023-01-22T09:10:30.337Z,89.83
2023-01-22T09:12:59.697Z,89.46
2023-01-22T09:15:27.803Z,88.94
2023-01-22T09:17:55.478Z,88.75
2023-01-22T09:20:23.425Z,88.22
2023-01-22T09:22:51.088Z,88.07
2023-01-22T09:25:18.780Z,87.89
2023-01-22T09:27:47.834Z,87.96
2023-01-22T09:30:16.345Z,87.76
2023-01-22T09:32:44.304Z,87.53
2023-01-22T09:35:12.009Z,87.38
2023-01-22T09:37:39.739Z,87.48
2023-01-22T09:40:11.478Z,87.50
2023-01-22T09:42:41.261Z,87.03
2023-01-22T09:45:18.176Z,86.86
2023-01-22T09:47:48.696Z,87.38
2023-01-22T09:50:20.981Z,87.59
2023-01-22T09:52:51.718Z,87.56
2023-01-22T09:55:23.067Z,87.64
2023-01-22T09:57:54.000Z,87.36
2023-01-22T10:00:28.126Z,89.03
2023-01-22T10:03:01.422Z,88.41
2023-01-22T10:05:33.327Z,88.57
2023-01-22T10:08:06.680Z,88.53
2023-01-22T10:10:34.955Z,88.63
2023-01-22T10:13:12.652Z,87.95
2023-01-22T10:15:41.714Z,88.02
2023-01-22T10:18:23.564Z,87.35
2023-01-22T10:20:51.497Z,87.60
2023-01-22T10:23:22.866Z,86.81
2023-01-22T10:25:53.421Z,86.34
2023-01-22T10:28:26.238Z,86.51
2023-01-22T10:30:59.147Z,86.62
2023-01-22T10:33:28.766Z,86.76
2023-01-22T10:35:57.763Z,85.97
2023-01-22T10:38:28.266Z,85.54
2023-01-22T10:40:58.530Z,85.67
2023-01-22T10:43:33.429Z,84.79
2023-01-22T10:46:16.909Z,84.87
2023-01-22T10:48:44.876Z,83.85
2023-01-22T10:51:16.287Z,84.60
2023-01-22T10:53:49.477Z,84.27
2023-01-22T10:56:28.754Z,84.61
2023-01-22T10:58:57.902Z,84.12
2023-01-22T11:01:32.431Z,84.14
2023-01-22T11:04:00.266Z,84.12
2023-01-22T11:06:35.346Z,84.22
2023-01-22T11:09:08.835Z,84.04
2023-01-22T11:11:39.783Z,83.94
2023-01-22T11:14:14.345Z,83.64
2023-01-22T11:16:44.584Z,83.66
2023-01-22T11:19:16.805Z,83.06
2023-01-22T11:21:50.299Z,83.42
2023-01-22T11:24:22.782Z,83.07
2023-01-22T11:27:08.452Z,82.65
2023-01-22T11:29:56.810Z,82.92
2023-01-22T11:32:52.671Z,82.42
2023-01-22T11:35:25.857Z,83.25
2023-01-22T11:38:06.778Z,83.24
2023-01-22T11:40:37.057Z,82.92
2023-01-22T11:43:28.169Z,82.84
2023-01-22T11:46:11.907Z,82.74
2023-01-22T11:48:50.402Z,83.03
2023-01-22T11:51:29.614Z,82.69
2023-01-22T11:54:30.740Z,82.36
2023-01-22T11:57:18.038Z,82.57
2023-01-22T12:00:19.092Z,82.94
2023-01-22T12:03:18.801Z,82.27
2023-01-22T12:05:57.552Z,82.46
2023-01-22T12:08:37.178Z,82.80
2023-01-22T12:11:17.641Z,82.68
2023-01-22T12:14:13.180Z,82.02
2023-01-22T12:16:48.713Z,82.28
2023-01-22T12:19:43.671Z,82.55
2023-01-22T12:22:28.268Z,82.60
2023-01-22T12:25:03.005Z,82.39
2023-01-22T12:27:35.811Z,82.68
2023-01-22T12:30:18.391Z,82.98
2023-01-22T12:32:53.161Z,83.15
2023-01-22T12:35:23.040Z,83.32
2023-01-22T12:37:58.662Z,83.17
2023-01-22T12:40:57.214Z,83.24
2023-01-22T12:43:34.594Z,83.27
2023-01-22T12:46:10.946Z,83.86
2023-01-22T12:48:47.573Z,83.71
2023-01-22T12:51:25.579Z,84.07
2023-01-22T12:53:55.065Z,84.20
2023-01-22T12:56:33.843Z,84.35
2023-01-22T12:59:01.646Z,84.27
2023-01-22T13:01:34.967Z,84.53
2023-01-22T13:04:05.219Z,84.78
2023-01-22T13:06:35.685Z,84.34
2023-01-22T13:09:06.326Z,84.94
2023-01-22T13:11:35.570Z,84.67
2023-01-22T13:14:19.827Z,84.40
2023-01-22T13:16:53.527Z,84.53
2023-01-22T13:19:24.683Z,84.97
2023-01-22T13:21:53.065Z,84.99
2023-01-22T13:24:22.681Z,85.23
2023-01-22T13:26:53.298Z,84.92
2023-01-22T13:29:27.061Z,85.39
2023-01-22T13:31:57.460Z,84.90
2023-01-22T13:34:26.193Z,84.84
2023-01-22T13:36:54.091Z,84.94
2023-01-22T13:39:27.388Z,84.83
2023-01-22T13:41:57.243Z,84.40
2023-01-22T13:44:27.990Z,84.10
2023-01-22T13:46:56.100Z,84.41
2023-01-22T13:49:26.403Z,84.12
2023-01-22T13:51:56.184Z,84.14
2023-01-22T13:54:29.905Z,84.39
2023-01-22T13:56:57.615Z,84.27
2023-01-22T13:59:27.377Z,84.62
2023-01-22T14:01:55.534Z,84.24
2023-01-22T14:04:28.947Z,84.94
2023-01-22T14:06:57.007Z,84.42
2023-01-22T14:09:31.179Z,84.72
2023-01-22T14:11:59.637Z,84.43
2023-01-22T14:14:28.120Z,84.61
2023-01-22T14:16:55.792Z,84.44
2023-01-22T14:19:26.312Z,84.65
2023-01-22T14:21:54.285Z,85.10
2023-01-22T14:24:21.927Z,85.65
2023-01-22T14:26:51.004Z,85.50
2023-01-22T14:29:18.698Z,85.82
2023-01-22T14:31:46.455Z,85.51
2023-01-22T14:34:14.137Z,85.48
2023-01-22T14:36:44.813Z,85.80
2023-01-22T14:39:12.478Z,86.15
2023-01-22T14:41:40.166Z,86.11
2023-01-22T14:44:09.314Z,85.84
2023-01-22T14:46:38.089Z,86.01
2023-01-22T14:49:05.749Z,85.85
2023-01-22T14:51:33.461Z,85.56
2023-01-22T14:54:01.134Z,85.30
2023-01-22T14:56:28.791Z,85.41
2023-01-22T14:58:56.421Z,84.98
2023-01-22T15:01:25.491Z,85.13
2023-01-22T15:03:54.106Z,85.23
2023-01-22T15:06:21.855Z,85.62
2023-01-22T15:08:49.570Z,85.08
2023-01-22T15:11:17.280Z,85.53
2023-01-22T15:13:44.897Z,85.28
2023-01-22T15:16:13.147Z,85.51
2023-01-22T15:18:42.799Z,85.10
2023-01-22T15:21:11.244Z,85.83
2023-01-22T15:23:38.973Z,85.67
2023-01-22T15:26:09.618Z,85.34
2023-01-22T15:28:37.787Z,85.23
2023-01-22T15:31:07.731Z,84.90
2023-01-22T15:33:35.835Z,85.02
2023-01-22T15:36:06.498Z,84.85
2023-01-22T15:38:34.301Z,85.06
2023-01-22T15:41:07.259Z,84.98
2023-01-22T15:43:34.997Z,85.10
2023-01-22T15:46:02.767Z,84.81
2023-01-22T15:48:30.481Z,85.25
2023-01-22T15:51:08.652Z,84.71
2023-01-22T15:53:36.565Z,84.97
2023-01-22T15:56:05.054Z,85.14
2023-01-22T15:58:33.109Z,85.37
2023-01-22T16:01:00.942Z,85.37
2023-01-22T16:03:28.660Z,85.77
2023-01-22T16:05:56.351Z,85.98
2023-01-22T16:08:25.388Z,85.75
2023-01-22T16:10:53.029Z,86.57
2023-01-22T16:13:20.693Z,86.02
2023-01-22T16:15:57.981Z,86.02
2023-01-22T16:18:25.933Z,86.36
2023-01-22T16:20:53.722Z,86.21
2023-01-22T16:23:22.169Z,86.55
2023-01-22T16:25:51.217Z,86.68
2023-01-22T16:28:18.939Z,86.19
2023-01-22T16:30:46.847Z,86.29
2023-01-22T16:33:20.813Z,86.70
2023-01-22T16:35:48.575Z,86.64
2023-01-22T16:38:16.242Z,87.10
2023-01-22T16:40:43.970Z,86.96
2023-01-22T16:43:12.961Z,87.09
2023-01-22T16:45:40.607Z,87.28
2023-01-22T16:48:08.293Z,87.28
2023-01-22T16:50:35.991Z,87.58
2023-01-22T16:53:03.657Z,87.03
2023-01-22T16:55:31.348Z,87.56
2023-01-22T16:58:00.013Z,87.29
2023-01-22T17:00:30.133Z,87.08
2023-01-22T17:02:59.845Z,87.08
2023-01-22T17:05:27.601Z,87.43
2023-01-22T17:07:55.260Z,87.26
2023-01-22T17:10:22.932Z,87.74
2023-01-22T17:12:50.682Z,87.72
2023-01-22T17:15:19.163Z,87.79
2023-01-22T17:17:48.267Z,87.89
2023-01-22T17:20:16.211Z,87.84
2023-01-22T17:22:44.095Z,87.47
2023-01-22T17:25:11.798Z,87.78
2023-01-22T17:27:39.825Z,87.72
2023-01-22T17:30:09.632Z,87.62
2023-01-22T17:32:37.438Z,87.63
2023-01-22T17:35:07.120Z,87.32
2023-01-22T17:37:34.900Z,87.29
2023-01-22T17:40:02.586Z,87.51
2023-01-22T17:42:30.536Z,87.48
2023-01-22T17:44:58.193Z,87.12
2023-01-22T17:47:25.891Z,87.43
2023-01-22T17:49:55.638Z,87.13
2023-01-22T17:52:24.871Z,87.09
2023-01-22T17:54:53.981Z,86.81
2023-01-22T17:57:21.645Z,87.26
2023-01-22T17:59:49.383Z,87.18
2023-01-22T18:02:17.167Z,86.66
2023-01-22T18:04:44.926Z,86.50
2023-01-22T18:07:12.587Z,86.93
2023-01-22T18:09:41.608Z,86.78
2023-01-22T18:12:09.338Z,86.57
2023-01-22T18:14:37.030Z,86.17
2023-01-22T18:17:04.796Z,86.42
2023-01-22T18:19:32.765Z,86.51
2023-01-22T18:22:00.452Z,85.85
2023-01-22T18:24:32.479Z,86.22
2023-01-22T18:27:03.513Z,86.11
2023-01-22T18:29:31.561Z,86.04
2023-01-22T18:31:59.552Z,86.09
2023-01-22T18:34:27.441Z,86.07
2023-01-22T18:36:55.098Z,86.06
2023-01-22T18:39:23.252Z,85.98
2023-01-22T18:41:51.471Z,85.96
2023-01-22T18:44:21.434Z,85.70
2023-01-22T18:46:51.729Z,85.68
2023-01-22T18:49:20.621Z,85.71
2023-01-22T18:51:48.703Z,85.84
2023-01-22T18:54:17.145Z,85.49
2023-01-22T18:56:44.851Z,86.13
2023-01-22T18:59:13.050Z,86.09
2023-01-22T19:01:44.320Z,85.56
2023-01-22T19:04:17.902Z,85.51
2023-01-22T19:06:48.139Z,85.78
2023-01-22T19:09:16.401Z,85.41
2023-01-22T19:11:46.970Z,85.09
2023-01-22T19:14:16.823Z,85.62
2023-01-22T19:16:48.378Z,85.29
2023-01-22T19:19:19.860Z,85.50
2023-01-22T19:21:52.361Z,85.44
2023-01-22T19:24:24.894Z,85.59
2023-01-22T19:26:54.702Z,85.67
2023-01-22T19:29:25.194Z,85.67
2023-01-22T19:31:57.605Z,85.22
2023-01-22T19:34:34.328Z,85.57
2023-01-22T19:37:02.705Z,85.30
2023-01-22T19:39:31.090Z,85.38
2023-01-22T19:42:01.976Z,85.36
2023-01-22T19:44:30.188Z,85.28
2023-01-22T19:47:00.259Z,85.36
2023-01-22T19:49:28.282Z,85.24
2023-01-22T19:51:56.362Z,85.52
2023-01-22T19:54:24.545Z,85.36
2023-01-22T19:56:52.372Z,85.23
2023-01-22T19:59:21.531Z,85.09
2023-01-22T20:01:50.353Z,85.56
2023-01-22T20:04:21.427Z,85.38
2023-01-22T20:06:51.824Z,85.43
2023-01-22T20:09:21.590Z,85.43
2023-01-22T20:11:53.329Z,85.49
2023-01-22T20:14:21.363Z,85.42
2023-01-22T20:16:49.025Z,85.49
2023-01-22T20:19:16.770Z,85.42
2023-01-22T20:21:45.855Z,85.40
2023-01-22T20:24:13.484Z,85.15
2023-01-22T20:26:41.546Z,85.06
2023-01-22T20:29:09.191Z,85.47
2023-01-22T20:31:36.924Z,84.98
2023-01-22T20:34:04.788Z,85.15
2023-01-22T20:36:33.000Z,85.46
2023-01-22T20:39:02.094Z,85.10
2023-01-22T20:41:30.730Z,85.31
2023-01-22T20:43:58.941Z,85.14
2023-01-22T20:46:27.795Z,85.53
2023-01-22T20:48:58.144Z,85.58
2023-01-22T20:51:28.767Z,85.34
2023-01-22T20:53:58.085Z,85.87
2023-01-22T20:56:31.247Z,85.64
2023-01-22T20:59:00.919Z,85.43
2023-01-22T21:01:29.488Z,85.78
2023-01-22T21:03:58.552Z,85.80
2023-01-22T21:06:28.280Z,85.82
2023-01-22T21:08:57.021Z,85.68
2023-01-22T21:11:27.079Z,85.69
2023-01-22T21:13:57.460Z,85.41
2023-01-22T21:16:27.359Z,85.32
2023-01-22T21:18:56.869Z,85.30
2023-01-22T21:21:25.224Z,85.51
2023-01-22T21:23:55.137Z,84.86
2023-01-22T21:26:24.543Z,85.12
2023-01-22T21:28:55.026Z,85.51
2023-01-22T21:31:25.127Z,85.12
2023-01-22T21:34:02.289Z,85.57
2023-01-22T21:36:31.513Z,85.21
2023-01-22T21:38:59.202Z,85.16
2023-01-22T21:41:27.247Z,85.20
2023-01-22T21:44:12.567Z,85.34
2023-01-22T21:46:43.401Z,85.48
2023-01-22T21:49:20.309Z,85.40
2023-01-22T21:51:50.203Z,86.03
2023-01-22T21:54:19.696Z,85.71
2023-01-22T21:56:47.494Z,85.75
2023-01-22T21:59:15.701Z,86.16
2023-01-22T22:01:45.816Z,86.04
2023-01-22T22:04:15.101Z,86.07
2023-01-22T22:06:43.366Z,85.66
2023-01-22T22:09:19.831Z,85.86
2023-01-22T22:11:47.674Z,85.46
2023-01-22T22:14:17.001Z,85.49
2023-01-22T22:16:46.132Z,85.31
2023-01-22T22:19:15.332Z,84.99
2023-01-22T22:21:43.199Z,85.35
2023-01-22T22:24:11.937Z,85.27
2023-01-22T22:26:40.291Z,85.34
2023-01-22T22:29:09.212Z,85.35
2023-01-22T22:31:38.195Z,84.80
2023-01-22T22:34:07.341Z,85.24
2023-01-22T22:36:35.505Z,85.32
2023-01-22T22:39:06.293Z,85.09
2023-01-22T22:41:35.930Z,84.87
2023-01-22T22:44:04.138Z,85.09
2023-01-22T22:46:33.777Z,85.41
2023-01-22T22:49:02.566Z,85.21
2023-01-22T22:51:33.608Z,85.06
2023-01-22T22:54:03.504Z,85.43
2023-01-22T22:56:32.347Z,85.00
2023-01-22T22:59:02.017Z,84.93
2023-01-22T23:01:31.157Z,84.79
2023-01-22T23:03:59.059Z,85.11
2023-01-22T23:06:28.132Z,84.52
2023-01-22T23:09:11.169Z,84.77
2023-01-22T23:11:39.178Z,84.45
2023-01-22T23:14:06.875Z,84.48
2023-01-22T23:16:36.886Z,84.71
2023-01-22T23:19:06.633Z,85.20
2023-01-22T23:21:35.112Z,84.84
2023-01-22T23:24:03.585Z,85.00
2023-01-22T23:26:32.649Z,84.75
2023-01-22T23:29:02.302Z,84.86
2023-01-22T23:31:32.281Z,84.38
2023-01-22T23:34:01.214Z,84.39
2023-01-22T23:36:30.370Z,84.81
2023-01-22T23:38:58.096Z,84.50
2023-01-22T23:41:25.784Z,84.50
2023-01-22T23:43:54.894Z,84.83
2023-01-22T23:46:24.623Z,84.49
2023-01-22T23:48:53.380Z,84.83
2023-01-22T23:51:21.270Z,84.62
2023-01-22T23:53:51.576Z,84.51
2023-01-22T23:56:21.045Z,84.61
2023-01-22T23:58:48.884Z,84.85
